Time;durP1;ratioP1;P1;durP2;ratioP2;P2;SDS_P1;SDS_P2;PMS_P1;PMS_P2;Temp;Humidity;BMP_temperature;BMP_pressure;BME280_temperature;BME280_humidity;BME280_pressure;Samples;Min_cycle;Max_cycle;Signal;HPM_P1;HPM_P2
2022/07/04 00:00:59;;;;;;;4.73;1.60;;;19.10;96.90;;;20.06;90.34;98426.09;4925231;29;20466;-77
2022/07/04 00:03:28;;;;;;;1.53;1.43;;;19.00;97.00;;;20.03;90.68;98415.91;4928071;29;20478;-77
2022/07/04 00:05:58;;;;;;;1.83;1.40;;;18.90;97.00;;;19.98;90.81;98413.19;4928154;29;20800;-77
2022/07/04 00:08:28;;;;;;;3.40;1.50;;;18.90;97.00;;;19.90;91.46;98411.72;4926880;29;20466;-77
2022/07/04 00:10:58;;;;;;;5.83;1.57;;;18.90;97.10;;;19.91;91.47;98412.53;4926005;29;20511;-78
2022/07/04 00:13:29;;;;;;;1.83;1.43;;;18.80;97.10;;;19.83;91.08;98412.91;4926645;29;20513;-77
2022/07/04 00:16:00;;;;;;;2.17;1.50;;;18.80;96.90;;;19.73;91.95;98415.38;4926154;29;20474;-77
2022/07/04 00:18:29;;;;;;;1.50;1.00;;;18.90;96.80;;;19.66;92.35;98420.00;4927454;29;20474;-77
2022/07/04 00:21:00;;;;;;;2.10;1.30;;;18.70;97.00;;;19.62;92.79;98417.00;4926181;29;20477;-77
2022/07/04 00:23:30;;;;;;;6.10;1.87;;;18.60;97.20;;;19.63;93.10;98415.16;4927588;29;20485;-77
2022/07/04 00:25:59;;;;;;;4.80;1.87;;;18.60;97.40;;;19.57;92.79;98408.97;4925969;29;20502;-77
2022/07/04 00:28:29;;;;;;;3.10;1.80;;;18.60;97.20;;;19.49;93.15;98404.84;4927150;29;20476;-77
2022/07/04 00:31:01;;;;;;;3.33;1.40;;;18.60;97.10;;;19.42;93.43;98404.16;4924243;29;20569;-77
2022/07/04 00:33:30;;;;;;;2.50;1.20;;;18.50;97.10;;;19.35;93.85;98408.75;4926988;29;20463;-77
2022/07/04 00:36:00;;;;;;;12.30;1.53;;;18.50;97.20;;;19.27;94.32;98403.00;4928879;29;20980;-77
2022/07/04 00:38:30;;;;;;;3.60;1.60;;;18.40;97.30;;;19.18;95.14;98396.44;4928530;29;20490;-77
2022/07/04 00:40:59;;;;;;;2.73;1.40;;;18.30;97.30;;;19.17;95.63;98395.63;4928923;29;20494;-77
2022/07/04 00:43:30;;;;;;;2.83;1.50;;;18.20;97.80;;;19.14;95.92;98396.09;4928204;29;20485;-77
2022/07/04 00:46:19;;;;;;;1.73;1.53;;;18.20;97.90;;;19.10;96.65;98401.06;4930434;29;20550;-77
2022/07/04 00:48:49;;;;;;;1.93;1.43;;;18.10;98.00;;;19.06;96.88;98399.09;4928515;29;20459;-77
2022/07/04 00:51:20;;;;;;;4.63;2.07;;;18.10;97.90;;;19.02;96.84;98411.25;4927627;29;21035;-77
2022/07/04 00:53:49;;;;;;;2.07;1.20;;;18.00;97.90;;;19.05;97.07;98413.44;4927689;29;20474;-76
2022/07/04 00:56:19;;;;;;;5.73;1.63;;;18.00;98.00;;;18.96;96.87;98410.31;4928491;29;20489;-77
2022/07/04 00:58:48;;;;;;;5.00;1.30;;;17.90;97.90;;;18.94;96.95;98416.88;4926408;29;20482;-77
2022/07/04 01:01:19;;;;;;;2.40;1.40;;;17.90;97.90;;;18.87;96.81;98417.00;4926755;29;20965;-77
2022/07/04 01:03:50;;;;;;;3.47;1.60;;;17.90;97.80;;;18.78;97.51;98423.66;4928106;29;20513;-77
2022/07/04 01:06:21;;;;;;;2.43;1.40;;;17.90;97.70;;;18.60;99.61;98424.56;4925255;29;20553;-77
2022/07/04 01:08:51;;;;;;;2.37;1.30;;;17.80;97.80;;;18.50;100.00;98426.97;4926039;29;20893;-77
2022/07/04 01:11:20;;;;;;;5.60;1.90;;;17.70;97.90;;;18.41;100.00;98428.31;4924993;29;20482;-77
2022/07/04 01:13:49;;;;;;;3.40;1.30;;;17.60;98.00;;;18.40;100.00;98425.88;4925639;29;20471;-77
2022/07/04 01:16:20;;;;;;;3.53;1.50;;;17.60;98.10;;;18.39;100.00;98430.41;4924601;29;20462;-77
2022/07/04 01:18:51;;;;;;;1.60;1.40;;;17.50;98.20;;;18.35;100.00;98431.88;4926895;29;20537;-77
2022/07/04 01:21:22;;;;;;;2.27;1.40;;;17.50;98.10;;;18.32;100.00;98435.00;4925781;29;20474;-77
2022/07/04 01:23:53;;;;;;;4.77;1.50;;;17.50;98.40;;;18.27;100.00;98432.19;4927155;29;20467;-76
2022/07/04 01:26:23;;;;;;;3.13;1.20;;;17.40;98.20;;;18.23;100.00;98431.03;4925898;29;20470;-77
2022/07/04 01:28:54;;;;;;;2.17;1.50;;;17.40;98.30;;;18.19;100.00;98444.97;4925907;29;20477;-77
2022/07/04 01:31:24;;;;;;;1.60;1.40;;;17.30;98.30;;;18.15;100.00;98446.44;4925951;29;20482;-77
2022/07/04 01:33:53;;;;;;;1.70;1.50;;;17.30;98.20;;;18.04;100.00;98448.84;4927379;29;20466;-77
2022/07/04 01:36:25;;;;;;;1.87;1.40;;;17.20;98.50;;;18.01;100.00;98448.47;4924444;29;20476;-77
2022/07/04 01:38:56;;;;;;;3.60;1.50;;;17.10;98.80;;;18.00;100.00;98446.84;4927223;29;20847;-77
2022/07/04 01:41:26;;;;;;;2.20;1.27;;;17.10;98.50;;;18.03;100.00;98454.34;4928201;29;20501;-77
2022/07/04 01:43:57;;;;;;;3.03;1.80;;;17.10;98.80;;;18.05;100.00;98454.91;4929326;29;20462;-77
2022/07/04 01:46:27;;;;;;;4.27;1.60;;;17.00;98.90;;;17.99;100.00;98455.81;4925736;29;21795;-77
2022/07/04 01:48:58;;;;;;;2.73;1.50;;;17.00;98.40;;;17.91;100.00;98461.44;4928650;29;20466;-77
2022/07/04 01:51:31;;;;;;;2.20;1.40;;;16.90;98.60;;;17.92;100.00;98460.38;4927257;29;20470;-77
2022/07/04 01:54:01;;;;;;;5.10;1.70;;;16.90;98.90;;;17.82;100.00;98460.94;4929769;29;20535;-77
2022/07/04 01:56:31;;;;;;;2.47;1.50;;;16.80;98.90;;;17.78;100.00;98469.53;4928450;29;20458;-77
2022/07/04 01:59:03;;;;;;;1.40;1.20;;;16.80;99.00;;;17.75;100.00;98464.69;4929320;29;20513;-77
2022/07/04 02:01:33;;;;;;;3.47;1.87;;;16.80;98.70;;;17.71;100.00;98469.59;4929327;29;20479;-77
2022/07/04 02:04:06;;;;;;;1.80;1.30;;;16.80;98.90;;;17.74;100.00;98473.63;4929589;29;20472;-77
2022/07/04 02:06:38;;;;;;;1.50;1.37;;;16.70;99.00;;;17.71;100.00;98474.91;4931182;29;20466;-77
2022/07/04 02:09:16;;;;;;;2.60;1.43;;;16.80;98.70;;;17.63;100.00;98477.84;4929048;29;20470;-77
2022/07/04 02:14:34;;;;;;;2.03;1.40;;;16.70;99.10;;;17.47;100.00;98479.22;4930313;29;20466;-76
2022/07/04 02:17:06;;;;;;;3.35;1.55;;;16.60;98.90;;;17.46;100.00;98487.34;4928635;29;20821;-77
2022/07/04 02:19:36;;;;;;;4.13;1.33;;;16.60;99.10;;;17.41;100.00;98479.28;4927630;29;21000;-77
2022/07/04 02:22:07;;;;;;;1.50;1.30;;;16.50;98.90;;;17.40;100.00;98483.75;4929027;29;21492;-77
2022/07/04 02:24:36;;;;;;;2.00;1.60;;;16.50;99.10;;;17.38;100.00;98485.81;4927833;29;20466;-77
2022/07/04 02:27:06;;;;;;;6.80;1.50;;;16.40;99.10;;;17.32;100.00;98486.69;4929543;29;20512;-77
2022/07/04 02:29:36;;;;;;;1.70;1.37;;;16.40;99.20;;;17.31;100.00;98489.56;4929743;29;20889;-77
2022/07/04 02:32:07;;;;;;;1.73;1.30;;;16.40;99.30;;;17.24;100.00;98489.63;4928161;29;20470;-77
2022/07/04 02:34:36;;;;;;;2.17;1.60;;;16.40;99.10;;;17.24;100.00;98489.63;4929616;29;20525;-76
2022/07/04 02:37:08;;;;;;;2.20;1.50;;;16.30;99.60;;;17.22;100.00;98489.03;4928714;29;21090;-76
2022/07/04 02:39:37;;;;;;;3.00;1.40;;;16.30;99.20;;;17.10;100.00;98488.94;4928712;29;20973;-77
2022/07/04 02:42:08;;;;;;;1.90;1.33;;;16.30;99.30;;;17.02;100.00;98494.50;4927213;29;20483;-76
2022/07/04 02:44:38;;;;;;;3.53;1.80;;;16.20;99.50;;;16.97;100.00;98496.97;4928315;29;20477;-77
2022/07/04 02:47:08;;;;;;;3.47;1.33;;;16.10;99.70;;;16.97;100.00;98493.53;4927061;29;20474;-77
2022/07/04 02:49:37;;;;;;;1.80;1.33;;;16.10;99.50;;;16.94;100.00;98493.94;4928770;29;20478;-77
2022/07/04 02:52:09;;;;;;;1.80;1.40;;;16.10;99.70;;;16.93;100.00;98493.16;4928144;29;21167;-77
2022/07/04 02:54:39;;;;;;;1.70;1.60;;;16.00;99.90;;;16.96;100.00;98489.28;4930870;29;20458;-78
2022/07/04 02:57:09;;;;;;;3.00;1.50;;;16.00;99.80;;;16.96;100.00;98492.72;4930317;29;20503;-78
2022/07/04 02:59:38;;;;;;;1.60;1.40;;;16.00;99.60;;;16.87;100.00;98487.94;4929640;29;20493;-78
2022/07/04 03:02:09;;;;;;;2.20;1.43;;;16.00;99.30;;;16.82;100.00;98490.41;4930640;29;20475;-78
2022/07/04 03:04:39;;;;;;;5.50;1.67;;;15.90;99.50;;;16.75;100.00;98489.66;4929177;29;20451;-78
2022/07/04 03:07:10;;;;;;;1.77;1.37;;;15.90;99.50;;;16.73;100.00;98497.78;4925142;29;20573;-78
2022/07/04 03:09:40;;;;;;;2.60;1.40;;;15.90;99.90;;;16.75;100.00;98500.22;4930989;29;20498;-88
2022/07/04 03:12:12;;;;;;;1.57;1.47;;;15.80;99.90;;;16.72;100.00;98490.09;4930038;29;20502;-78
2022/07/04 03:14:42;;;;;;;1.60;1.23;;;15.80;99.60;;;16.68;100.00;98494.19;4926819;29;20462;-78
2022/07/04 03:17:12;;;;;;;1.53;1.30;;;15.80;99.90;;;16.63;100.00;98497.44;4927588;29;20961;-78
2022/07/04 03:19:48;;;;;;;2.30;1.60;;;15.80;99.80;;;16.62;100.00;98505.59;4927226;29;20499;-78
2022/07/04 03:22:21;;;;;;;2.77;1.60;;;15.70;99.60;;;16.52;100.00;98496.28;4927738;29;20470;-84
2022/07/04 03:24:51;;;;;;;1.60;1.50;;;15.70;99.70;;;16.51;100.00;98493.88;4927790;29;20470;-78
2022/07/04 03:27:21;;;;;;;1.70;1.57;;;15.60;99.90;;;16.48;100.00;98500.38;4927980;29;20467;-77
2022/07/04 03:29:51;;;;;;;2.73;1.80;;;15.60;99.90;;;16.46;100.00;98497.13;4929333;29;20502;-77
2022/07/04 03:32:21;;;;;;;1.60;1.40;;;15.50;99.90;;;16.48;100.00;98497.75;4929187;29;20462;-77
2022/07/04 03:34:51;;;;;;;1.67;1.40;;;15.50;99.90;;;16.44;100.00;98496.56;4929934;29;20463;-77
2022/07/04 03:37:23;;;;;;;2.57;1.30;;;15.60;99.90;;;16.43;100.00;98496.75;4929963;29;20466;-77
2022/07/04 03:39:54;;;;;;;1.80;1.30;;;15.50;99.90;;;16.46;100.00;98502.41;4928882;29;20482;-77
2022/07/04 03:42:24;;;;;;;4.20;1.40;;;15.40;99.90;;;16.43;100.00;98508.13;4929985;29;20897;-77
2022/07/04 03:44:54;;;;;;;1.40;1.20;;;15.40;99.90;;;16.39;100.00;98506.94;4928579;29;20467;-84
2022/07/04 03:47:24;;;;;;;1.40;1.20;;;15.40;99.90;;;16.34;100.00;98498.84;4926090;29;20553;-78
2022/07/04 03:49:55;;;;;;;1.50;1.30;;;15.30;99.90;;;16.36;100.00;98512.63;4926202;29;20473;-77
2022/07/04 03:52:29;;;;;;;3.23;1.60;;;15.30;99.90;;;16.34;100.00;98519.97;4926011;29;20471;-77
2022/07/04 03:54:59;;;;;;;1.87;1.30;;;15.30;99.90;;;16.41;100.00;98519.94;4923112;29;20957;-77
2022/07/04 03:57:31;;;;;;;3.53;1.53;;;15.30;99.90;;;16.38;100.00;98520.34;4928087;29;20466;-77
2022/07/04 04:00:01;;;;;;;2.80;1.83;;;15.30;99.90;;;16.37;100.00;98521.38;4940908;29;20482;-77
2022/07/04 04:02:33;;;;;;;2.33;1.53;;;15.30;99.90;;;16.33;100.00;98515.69;4928198;29;20518;-77
2022/07/04 04:07:52;;;;;;;3.10;1.90;;;15.30;99.90;;;16.26;100.00;98522.84;4926587;29;20466;-85
2022/07/04 04:10:22;;;;;;;5.53;2.53;;;15.30;99.90;;;16.29;100.00;98525.06;4926032;29;20482;-77
2022/07/04 04:12:51;;;;;;;1.97;1.40;;;15.20;99.90;;;16.27;100.00;98526.31;4927304;29;20541;-77
2022/07/04 04:15:21;;;;;;;2.43;1.50;;;15.20;99.90;;;16.30;100.00;98528.50;4925577;29;20570;-77
2022/07/04 04:17:52;;;;;;;1.40;1.30;;;15.20;99.90;;;16.33;100.00;98528.09;4926518;29;21079;-77
2022/07/04 04:20:22;;;;;;;1.90;1.57;;;15.20;99.90;;;16.33;100.00;98536.00;4925454;29;20967;-76
2022/07/04 04:22:53;;;;;;;1.50;1.40;;;15.20;99.90;;;16.32;100.00;98534.38;4926248;28;20463;-77
2022/07/04 04:25:23;;;;;;;1.57;1.40;;;15.20;99.90;;;16.31;100.00;98525.69;4924054;29;20473;-77
2022/07/04 04:27:54;;;;;;;2.30;2.03;;;15.20;99.90;;;16.28;100.00;98534.00;4924856;29;20475;-77
2022/07/04 04:30:25;;;;;;;2.93;1.50;;;15.20;99.90;;;16.27;100.00;98529.75;4926433;29;20899;-77
2022/07/04 04:32:56;;;;;;;2.90;1.80;;;15.20;99.90;;;16.24;100.00;98546.00;4928024;29;20467;-86
2022/07/04 04:35:25;;;;;;;3.13;2.23;;;15.30;99.90;;;16.23;100.00;98547.03;4929243;29;20562;-77
2022/07/04 04:37:59;;;;;;;5.53;2.00;;;15.30;99.90;;;16.24;100.00;98545.19;4927017;29;20477;-77
2022/07/04 04:40:30;;;;;;;2.20;1.40;;;15.20;99.90;;;16.27;100.00;98537.66;4924181;29;20489;-77
2022/07/04 04:43:00;;;;;;;2.40;1.83;;;15.30;99.90;;;16.30;100.00;98539.88;4923562;29;20463;-77
2022/07/04 04:45:32;;;;;;;4.60;1.53;;;15.30;99.90;;;16.32;100.00;98535.19;4929283;29;20470;-82
2022/07/04 04:48:03;;;;;;;2.13;1.70;;;15.20;99.90;;;16.31;100.00;98541.50;4928316;29;20467;-77
2022/07/04 04:50:34;;;;;;;3.23;1.43;;;15.30;99.90;;;16.34;100.00;98541.09;4926442;29;20459;-78
2022/07/04 04:53:05;;;;;;;3.80;1.67;;;15.30;99.90;;;16.38;100.00;98542.25;4923176;29;20502;-77
2022/07/04 04:55:35;;;;;;;1.20;1.10;;;15.30;99.90;;;16.42;100.00;98543.47;4924849;29;20467;-77
2022/07/04 04:58:04;;;;;;;2.30;1.77;;;15.30;99.90;;;16.43;100.00;98550.38;4927281;29;20521;-77
2022/07/04 05:00:34;;;;;;;1.53;1.43;;;15.40;99.90;;;16.44;100.00;98548.53;4929581;29;20589;-77
2022/07/04 05:03:04;;;;;;;4.73;3.37;;;15.50;99.90;;;16.47;100.00;98556.84;4928585;29;20498;-77
2022/07/04 05:05:35;;;;;;;4.53;1.80;;;15.50;99.90;;;16.53;100.00;98550.72;4928527;29;20555;-77
2022/07/04 05:08:06;;;;;;;4.30;1.63;;;15.40;99.90;;;16.55;100.00;98551.34;4927234;29;20470;-77
2022/07/04 05:10:36;;;;;;;2.20;1.67;;;15.40;99.90;;;16.55;100.00;98555.78;4928179;29;20481;-77
2022/07/04 05:13:06;;;;;;;1.60;1.37;;;15.40;99.90;;;16.57;100.00;98546.66;4928731;29;20454;-77
2022/07/04 05:15:36;;;;;;;2.43;1.87;;;15.50;99.90;;;16.56;100.00;98549.50;4930731;29;20494;-78
2022/07/04 05:18:05;;;;;;;4.77;1.80;;;15.50;99.90;;;16.58;100.00;98552.75;4930512;29;20463;-77
2022/07/04 05:20:36;;;;;;;6.23;1.70;;;15.50;99.90;;;16.59;100.00;98549.88;4932303;29;20526;-77
2022/07/04 05:23:07;;;;;;;1.60;1.30;;;15.60;99.90;;;16.59;100.00;98555.16;4929329;29;20462;-78
2022/07/04 05:25:37;;;;;;;1.60;1.43;;;15.70;99.90;;;16.58;100.00;98553.56;4928379;29;20953;-77
2022/07/04 05:28:06;;;;;;;2.40;1.50;;;15.80;99.90;;;16.53;100.00;98558.63;4929530;29;20988;-77
2022/07/04 05:30:36;;;;;;;2.00;1.77;;;15.80;99.90;;;16.51;100.00;98558.03;4931214;29;20459;-77
2022/07/04 05:33:05;;;;;;;2.57;1.60;;;15.80;99.90;;;16.51;100.00;98558.03;4931030;29;20483;-77
2022/07/04 05:35:35;;;;;;;3.90;1.70;;;15.80;99.90;;;16.56;100.00;98568.78;4932641;29;20968;-77
2022/07/04 05:38:06;;;;;;;2.37;1.60;;;15.80;99.90;;;16.58;100.00;98563.31;4934094;29;20825;-77
2022/07/04 05:40:36;;;;;;;2.37;1.63;;;15.80;99.90;;;16.59;100.00;98565.72;4933909;29;20881;-77
2022/07/04 05:43:05;;;;;;;1.60;1.40;;;15.90;99.90;;;16.62;100.00;98569.78;4932317;29;20466;-77
2022/07/04 05:45:34;;;;;;;2.40;1.60;;;15.80;99.90;;;16.70;100.00;98566.06;4933623;29;20455;-77
2022/07/04 05:48:04;;;;;;;3.53;2.17;;;15.80;99.90;;;16.76;100.00;98571.34;4934918;29;20460;-77
2022/07/04 05:50:35;;;;;;;1.60;1.40;;;15.80;99.90;;;16.83;100.00;98571.28;4933028;29;20921;-77
2022/07/04 05:53:07;;;;;;;8.40;1.67;;;15.90;99.90;;;16.91;100.00;98568.38;4934621;29;20447;-77
2022/07/04 05:55:38;;;;;;;1.73;1.37;;;16.00;99.90;;;16.97;100.00;98573.59;4933901;29;20450;-77
2022/07/04 05:58:08;;;;;;;2.20;1.53;;;16.00;99.90;;;17.03;100.00;98566.66;4934298;29;20489;-77
2022/07/04 06:00:39;;;;;;;2.70;1.30;;;16.10;99.90;;;17.07;100.00;98570.50;4933524;29;20536;-78
2022/07/04 06:03:10;;;;;;;5.20;1.90;;;16.10;99.90;;;17.14;100.00;98562.50;4933539;29;20535;-78
2022/07/04 06:05:40;;;;;;;4.50;1.60;;;16.10;99.90;;;17.19;100.00;98555.53;4932784;29;20490;-77
2022/07/04 06:08:12;;;;;;;4.33;1.77;;;16.20;99.90;;;17.25;100.00;98559.97;4932343;29;20462;-78
2022/07/04 06:10:42;;;;;;;2.03;1.60;;;16.20;99.90;;;17.30;100.00;98557.47;4931253;29;20975;-79
2022/07/04 06:13:12;;;;;;;2.90;1.30;;;16.30;99.90;;;17.36;100.00;98553.16;4932273;29;20494;-77
2022/07/04 06:15:42;;;;;;;3.23;1.60;;;16.40;99.90;;;17.40;100.00;98552.50;4932703;29;20454;-77
2022/07/04 06:18:13;;;;;;;2.40;1.67;;;16.40;99.90;;;17.45;100.00;98552.69;4934326;29;20455;-78
2022/07/04 06:20:44;;;;;;;3.90;1.60;;;16.50;99.90;;;17.51;100.00;98545.69;4933585;29;20498;-77
2022/07/04 06:23:15;;;;;;;2.10;1.83;;;16.50;99.90;;;17.56;100.00;98546.66;4932218;29;20470;-78
2022/07/04 06:25:45;;;;;;;1.90;1.60;;;16.60;99.90;;;17.63;100.00;98545.81;4933380;29;20446;-77
2022/07/04 06:28:15;;;;;;;4.40;1.50;;;16.70;99.90;;;17.70;100.00;98535.97;4931424;29;20495;-77
2022/07/04 06:31:04;;;;;;;4.13;1.50;;;16.80;99.90;;;17.75;100.00;98530.81;4931446;29;20570;-77
2022/07/04 06:35:44;;;;;;;5.17;2.03;;;16.80;99.90;;;17.77;100.00;98529.56;4933289;29;20489;-77
2022/07/04 06:36:24;;;;;;;3.53;1.73;;;16.90;99.20;;;17.84;100.00;98524.22;4931386;29;20467;-77
2022/07/04 06:38:54;;;;;;;2.00;1.60;;;16.90;99.10;;;17.88;100.00;98523.53;4932030;29;20524;-78
2022/07/04 06:41:25;;;;;;;2.37;1.97;;;17.00;99.30;;;17.93;100.00;98522.88;4931364;29;20589;-77
2022/07/04 06:43:54;;;;;;;4.37;2.30;;;17.00;98.70;;;18.00;99.40;98523.59;4933155;29;20446;-77
2022/07/04 06:46:26;;;;;;;4.80;2.37;;;17.10;98.40;;;18.04;98.60;98522.94;4931269;29;20451;-77
2022/07/04 06:48:54;;;;;;;3.63;1.43;;;17.10;98.20;;;18.10;98.66;98523.88;4933033;29;20443;-77
2022/07/04 06:51:24;;;;;;;4.33;1.73;;;17.20;98.20;;;18.14;96.72;98522.41;4931717;29;20462;-77
2022/07/04 06:53:56;;;;;;;2.93;1.40;;;17.20;97.80;;;18.22;96.62;98514.16;4932207;29;20450;-77
2022/07/04 06:56:26;;;;;;;2.23;1.83;;;17.30;97.80;;;18.30;96.16;98513.03;4933369;29;20470;-77
2022/07/04 06:58:56;;;;;;;3.10;1.70;;;17.40;98.10;;;18.37;96.07;98516.38;4933371;29;20466;-78
2022/07/04 07:01:27;;;;;;;5.40;1.87;;;17.50;97.90;;;18.45;94.22;98521.38;4932917;29;20503;-77
2022/07/04 07:03:57;;;;;;;2.73;1.60;;;17.60;97.60;;;18.48;92.28;98513.78;4932758;29;20810;-78
2022/07/04 07:06:28;;;;;;;7.40;1.50;;;17.70;97.00;;;18.53;90.85;98516.59;4931979;29;20447;-77
2022/07/04 07:09:01;;;;;;;3.47;1.93;;;17.80;96.80;;;18.57;90.41;98517.75;4930228;29;20976;-77
2022/07/04 07:11:32;;;;;;;14.33;1.67;;;17.90;96.80;;;18.60;90.25;98512.00;4930122;29;20471;-77
2022/07/04 07:14:02;;;;;;;3.43;1.40;;;17.80;96.60;;;18.69;90.20;98514.31;4931247;29;20513;-77
2022/07/04 07:16:33;;;;;;;4.30;1.97;;;17.90;96.60;;;18.72;87.94;98513.88;4931466;29;20454;-77
2022/07/04 07:19:02;;;;;;;3.60;1.83;;;17.90;96.10;;;18.77;87.38;98511.34;4931208;29;20465;-77
2022/07/04 07:21:32;;;;;;;6.80;1.60;;;18.00;96.10;;;18.81;86.72;98515.97;4929308;29;20502;-77
2022/07/04 07:24:03;;;;;;;4.70;1.57;;;18.00;95.70;;;18.85;86.28;98525.06;4931319;29;20467;-77
2022/07/04 07:26:34;;;;;;;1.80;1.33;;;18.00;96.10;;;18.90;86.41;98517.25;4931250;29;20981;-78
2022/07/04 07:29:04;;;;;;;7.93;1.57;;;18.00;96.20;;;18.93;87.25;98513.34;4931700;29;20442;-77
2022/07/04 07:31:34;;;;;;;4.83;1.57;;;18.00;96.50;;;18.97;87.40;98514.50;4931185;29;20838;-77
2022/07/04 07:34:05;;;;;;;2.23;1.40;;;18.10;96.40;;;18.99;85.67;98512.41;4932078;29;20836;-78
2022/07/04 07:36:34;;;;;;;5.93;1.57;;;18.20;95.70;;;19.06;84.64;98510.47;4932258;29;20467;-77
2022/07/04 07:39:06;;;;;;;5.70;1.70;;;18.30;96.10;;;19.09;85.82;98507.34;4930228;29;20934;-77
2022/07/04 07:41:41;;;;;;;4.10;1.30;;;18.40;96.00;;;19.10;85.41;98501.81;4931132;29;20552;-77
2022/07/04 07:44:10;;;;;;;2.73;1.73;;;18.40;95.80;;;19.13;84.94;98495.25;4932253;29;20443;-78
2022/07/04 07:46:41;;;;;;;7.20;1.67;;;18.40;95.80;;;19.16;84.04;98507.25;4932940;29;20454;-78
2022/07/04 07:49:11;;;;;;;1.63;1.30;;;18.30;95.40;;;19.17;82.80;98496.41;4931785;29;20470;-77
2022/07/04 07:51:42;;;;;;;3.10;1.60;;;18.40;95.00;;;19.20;80.84;98487.16;4931296;29;20467;-78
2022/07/04 07:54:16;;;;;;;3.20;1.47;;;18.40;94.60;;;19.25;81.70;98492.59;4932504;29;20454;-77
2022/07/04 07:56:52;;;;;;;1.40;1.23;;;18.40;95.10;;;19.30;81.45;98492.72;4931762;29;20891;-77
2022/07/04 07:59:22;;;;;;;7.97;1.67;;;18.50;94.90;;;19.35;80.25;98487.50;4931657;29;20451;-77
2022/07/04 08:01:52;;;;;;;1.40;1.03;;;18.50;94.40;;;19.40;80.29;98490.28;4930691;29;20490;-77
2022/07/04 08:04:38;;;;;;;9.47;1.30;;;18.70;94.90;;;19.45;80.76;98480.63;4930548;29;20443;-78
2022/07/04 08:07:11;;;;;;;4.90;1.77;;;18.60;94.90;;;19.47;77.30;98485.72;4932186;29;20470;-77
2022/07/04 08:09:53;;;;;;;1.87;1.13;;;18.70;93.90;;;19.50;77.62;98490.53;4931232;29;20536;-77
2022/07/04 08:12:23;;;;;;;5.73;1.40;;;18.70;94.20;;;19.54;76.97;98484.50;4929571;29;20451;-77
2022/07/04 08:14:53;;;;;;;3.30;1.40;;;18.80;94.00;;;19.55;76.74;98487.97;4930787;29;20946;-77
2022/07/04 08:17:22;;;;;;;3.27;1.03;;;18.90;94.00;;;19.58;77.79;98488.31;4930553;29;20470;-77
2022/07/04 08:19:52;;;;;;;1.60;1.20;;;18.80;94.30;;;19.64;75.40;98485.78;4931628;29;20965;-78
2022/07/04 08:22:22;;;;;;;1.63;1.20;;;18.90;93.70;;;19.68;73.30;98487.72;4928845;29;21065;-77
2022/07/04 08:24:54;;;;;;;3.57;1.30;;;19.10;93.20;;;19.71;73.94;98484.63;4930397;29;20455;-78
2022/07/04 08:27:25;;;;;;;2.40;1.00;;;19.00;93.50;;;19.73;74.27;98484.38;4931129;29;20447;-77
2022/07/04 08:30:02;;;;;;;1.70;1.10;;;18.90;93.40;;;19.78;72.69;98481.84;4931871;29;20470;-77
2022/07/04 08:32:31;;;;;;;3.60;1.20;;;19.00;92.80;;;19.83;72.26;98481.91;4929872;29;20459;-78
2022/07/04 08:35:01;;;;;;;1.93;1.20;;;19.00;92.90;;;19.88;70.19;98490.00;4930913;29;20461;-77
2022/07/04 08:37:31;;;;;;;5.10;1.80;;;19.20;92.60;;;19.89;70.10;98478.31;4931136;29;20509;-77
2022/07/04 08:40:06;;;;;;;3.53;1.20;;;19.20;92.60;;;19.93;69.71;98480.28;4931086;29;20442;-77
2022/07/04 08:42:40;;;;;;;2.57;1.27;;;19.30;92.50;;;19.99;70.13;98475.88;4928710;29;21438;-77
2022/07/04 08:45:14;;;;;;;2.43;0.90;;;19.30;92.60;;;20.00;70.16;98475.63;4929754;29;20990;-77
2022/07/04 08:47:52;;;;;;;5.00;1.47;;;19.30;92.50;;;20.05;69.65;98477.59;4931479;29;20968;-77
2022/07/04 08:50:30;;;;;;;3.93;1.30;;;19.40;92.50;;;20.05;69.11;98462.47;4931529;29;20817;-78
2022/07/04 08:53:07;;;;;;;6.37;1.30;;;19.40;92.10;;;20.10;69.14;98461.72;4930000;29;20543;-78
2022/07/04 08:58:30;;;;;;;3.30;1.47;;;19.50;92.20;;;20.20;69.12;98459.25;4910563;29;20569;-77
2022/07/04 09:01:05;;;;;;;2.23;1.20;;;19.50;92.30;;;20.22;68.33;98451.88;4929195;29;20541;-77
2022/07/04 09:03:36;;;;;;;2.23;1.03;;;19.50;92.00;;;20.29;69.15;98449.91;4929914;29;20450;-77
2022/07/04 09:06:06;;;;;;;3.00;1.00;;;19.60;92.40;;;20.32;69.35;98446.75;4930660;29;20562;-78
2022/07/04 09:08:36;;;;;;;3.93;1.40;;;19.60;92.50;;;20.37;68.79;98448.72;4930633;29;20458;-77
2022/07/04 09:11:07;;;;;;;2.13;1.13;;;19.60;92.30;;;20.42;68.52;98448.78;4933505;29;20518;-78
2022/07/04 09:13:37;;;;;;;2.20;1.30;;;19.70;92.40;;;20.47;68.68;98444.38;4934193;29;20888;-78
2022/07/04 09:16:09;;;;;;;2.80;1.20;;;19.70;92.50;;;20.54;67.55;98439.72;4934607;29;20501;-78
2022/07/04 09:18:40;;;;;;;1.10;1.00;;;19.90;92.10;;;20.62;68.20;98441.13;4933917;29;20538;-78
2022/07/04 09:21:11;;;;;;;4.23;1.17;;;20.00;92.40;;;20.67;67.46;98443.09;4933672;29;20480;-77
2022/07/04 09:23:43;;;;;;;1.57;0.90;;;20.00;92.10;;;20.70;66.77;98434.63;4933122;29;25133;-77
2022/07/04 09:26:18;;;;;;;3.53;1.03;;;20.00;91.90;;;20.75;66.87;98443.50;4933844;29;20927;-77
2022/07/04 09:28:56;;;;;;;3.20;1.43;;;20.10;92.00;;;20.80;67.18;98437.44;4935555;29;20442;-78
2022/07/04 09:31:28;;;;;;;1.93;1.23;;;20.10;92.10;;;20.82;65.36;98438.00;4934497;29;20937;-78
2022/07/04 09:34:00;;;;;;;2.97;1.60;;;20.20;91.50;;;20.84;65.34;98430.59;4934164;29;20446;-78
2022/07/04 09:36:31;;;;;;;2.80;1.23;;;20.10;91.70;;;20.91;64.61;98433.88;4933917;29;20477;-77
2022/07/04 09:39:12;;;;;;;1.83;1.00;;;20.30;91.40;;;20.94;64.54;98433.41;4933735;29;20462;-77
2022/07/04 09:42:00;;;;;;;1.87;1.20;;;20.30;91.40;;;20.95;63.23;98430.50;4933226;29;20545;-78
2022/07/04 09:44:48;;;;;;;6.03;1.40;;;20.10;91.30;;;20.98;63.05;98434.53;4933302;29;21313;-78
2022/07/04 09:47:24;;;;;;;2.23;0.93;;;20.10;91.60;;;21.06;64.43;98426.94;4934773;29;20486;-78
2022/07/04 09:50:04;;;;;;;1.80;1.10;;;20.30;91.70;;;21.10;63.15;98429.94;4932489;29;20458;-78
2022/07/04 09:52:45;;;;;;;1.63;1.20;;;20.40;91.10;;;21.17;63.27;98427.13;4933799;29;20814;-78
2022/07/04 09:55:24;;;;;;;2.43;1.03;;;20.40;91.30;;;21.19;61.82;98425.81;4934175;29;20472;-78
2022/07/04 09:57:56;;;;;;;3.37;1.60;;;20.40;90.90;;;21.23;61.72;98437.56;4934530;29;20466;-77
2022/07/04 10:00:29;;;;;;;4.30;1.13;;;20.50;90.90;;;21.26;61.73;98431.75;4934949;29;20447;-77
2022/07/04 10:03:18;;;;;;;3.87;1.03;;;20.50;90.90;;;21.32;62.20;98424.63;4933789;29;20474;-78
2022/07/04 10:06:02;;;;;;;2.07;1.10;;;20.60;91.00;;;21.35;61.35;98429.47;4933851;29;20446;-78
2022/07/04 10:08:32;;;;;;;1.40;1.10;;;20.70;90.70;;;21.42;62.08;98430.91;4932499;29;20455;-78
2022/07/04 10:11:03;;;;;;;2.13;1.30;;;20.70;90.80;;;21.45;61.31;98422.41;4933515;29;20478;-78
2022/07/04 10:13:40;;;;;;;2.23;0.90;;;20.70;90.60;;;21.52;61.43;98423.03;4933268;29;20545;-78
2022/07/04 10:16:11;;;;;;;1.70;1.20;;;20.70;91.00;;;21.57;62.29;98423.09;4932946;29;20458;-78
2022/07/04 10:18:42;;;;;;;1.87;1.10;;;20.80;91.30;;;21.61;60.65;98423.41;4933439;29;20443;-78
2022/07/04 10:21:13;;;;;;;3.13;1.00;;;20.80;90.60;;;21.68;60.70;98423.22;4933468;29;20803;-79
2022/07/04 10:23:46;;;;;;;3.90;1.13;;;20.90;91.10;;;21.73;61.01;98423.28;4933052;29;20502;-78
2022/07/04 10:26:21;;;;;;;2.70;1.00;;;21.00;90.60;;;21.79;61.26;98420.44;4933781;29;21001;-77
2022/07/04 10:28:53;;;;;;;1.70;1.07;;;21.10;90.70;;;21.85;60.16;98418.63;4932125;29;20459;-77
2022/07/04 10:31:29;;;;;;;11.13;1.50;;;21.10;90.30;;;21.91;59.83;98418.47;4932093;29;20467;-78
2022/07/04 10:34:03;;;;;;;2.03;1.20;;;21.20;90.10;;;21.97;59.11;98427.31;4933890;29;20984;-78
2022/07/04 10:36:32;;;;;;;2.30;1.00;;;21.30;90.20;;;22.02;59.06;98422.03;4932251;29;20450;-78
2022/07/04 10:39:05;;;;;;;4.13;1.10;;;21.30;90.00;;;22.06;58.25;98417.81;4932519;29;20463;-78
2022/07/04 10:41:36;;;;;;;2.13;1.10;;;21.30;90.00;;;22.13;58.44;98420.28;4931031;29;20502;-78